Time;durP1;ratioP1;P1;durP2;ratioP2;P2;SDS_P1;SDS_P2;PMS_P1;PMS_P2;Temp;Humidity;BMP_temperature;BMP_pressure;BME280_temperature;BME280_humidity;BME280_pressure;Samples;Min_cycle;Max_cycle;Signal;HPM_P1;HPM_P2
2022/01/26 00:07:50;;;;;;;0.20;0.20;;;;;;;;;;4983812;28;20193;-71
2022/01/26 00:10:18;;;;;;;0.10;0.10;;;;;;;;;;4983750;28;20251;-71
2022/01/26 00:12:45;;;;;;;0.10;0.10;;;;;;;;;;4983678;28;20200;-71
2022/01/26 00:15:11;;;;;;;0.20;0.20;;;;;;;;;;4983662;28;20212;-71
2022/01/26 00:17:37;;;;;;;0.10;0.10;;;;;;;;;;4983511;28;20209;-70
2022/01/26 00:20:13;;;;;;;0.10;0.10;;;;;;;;;;4983591;28;20210;-71
2022/01/26 00:22:54;;;;;;;0.10;0.10;;;;;;;;;;4983761;28;20243;-72
2022/01/26 00:25:34;;;;;;;0.10;0.10;;;;;;;;;;4983485;28;20214;-71
2022/01/26 00:28:19;;;;;;;0.10;0.10;;;;;;;;;;4983731;28;20234;-72
2022/01/26 00:38:59;;;;;;;0.10;0.10;;;;;;;;;;4983400;28;20193;-71
2022/01/26 00:41:34;;;;;;;0.10;0.10;;;;;;;;;;4983717;28;20236;-70
2022/01/26 00:44:01;;;;;;;0.10;0.10;;;;;;;;;;4983576;28;20200;-71
2022/01/26 00:46:27;;;;;;;0.10;0.10;;;;;;;;;;4983690;28;20207;-71
2022/01/26 00:48:53;;;;;;;0.10;0.10;;;;;;;;;;4983532;28;20221;-71
2022/01/26 00:51:21;;;;;;;0.10;0.10;;;;;;;;;;4983836;28;20218;-70
2022/01/26 00:54:01;;;;;;;0.13;0.13;;;;;;;;;;4983171;28;20224;-71
2022/01/26 00:56:29;;;;;;;0.17;0.17;;;;;;;;;;4983809;28;20209;-71
2022/01/26 00:58:55;;;;;;;0.10;0.10;;;;;;;;;;4983562;28;20229;-71
2022/01/26 01:01:21;;;;;;;0.10;0.10;;;;;;;;;;4983652;28;20285;-70
2022/01/26 01:03:48;;;;;;;0.10;0.10;;;;;;;;;;4983259;28;20213;-70
2022/01/26 01:06:20;;;;;;;0.20;0.20;;;;;;;;;;4983384;28;20268;-70
2022/01/26 01:08:47;;;;;;;0.10;0.10;;;;;;;;;;4983101;28;20208;-70
2022/01/26 01:11:13;;;;;;;0.10;0.10;;;;;;;;;;4983070;28;20217;-70
2022/01/26 01:13:42;;;;;;;0.10;0.10;;;;;;;;;;4986693;28;20231;-71
2022/01/26 01:16:09;;;;;;;0.10;0.10;;;;;;;;;;4986884;28;20251;-70
2022/01/26 01:18:43;;;;;;;0.17;0.17;;;;;;;;;;4986690;28;20276;-70
2022/01/26 01:21:42;;;;;;;0.10;0.10;;;;;;;;;;4986869;28;20446;-71
2022/01/26 01:24:25;;;;;;;0.20;0.20;;;;;;;;;;4986121;28;20233;-69
2022/01/26 01:27:06;;;;;;;0.10;0.10;;;;;;;;;;4986652;28;20267;-70
2022/01/26 01:29:37;;;;;;;0.20;0.20;;;;;;;;;;4986721;28;20200;-69
2022/01/26 01:32:11;;;;;;;0.10;0.10;;;;;;;;;;4986247;28;20198;-69
2022/01/26 01:34:38;;;;;;;0.10;0.10;;;;;;;;;;4986386;28;20225;-69
2022/01/26 01:37:07;;;;;;;0.10;0.10;;;;;;;;;;4986459;28;20256;-66
2022/01/26 01:39:34;;;;;;;0.10;0.10;;;;;;;;;;4986222;28;20232;-70
2022/01/26 01:42:01;;;;;;;0.10;0.10;;;;;;;;;;4986421;28;20209;-71
2022/01/26 01:44:27;;;;;;;0.10;0.10;;;;;;;;;;4986279;28;20204;-70
2022/01/26 01:46:57;;;;;;;0.20;0.20;;;;;;;;;;4985922;28;20435;-70
2022/01/26 01:49:24;;;;;;;0.13;0.13;;;;;;;;;;4985801;28;20240;-70
2022/01/26 01:51:56;;;;;;;0.20;0.20;;;;;;;;;;4986189;28;20210;-70
2022/01/26 01:54:22;;;;;;;0.20;0.20;;;;;;;;;;4986049;28;20450;-71
2022/01/26 01:56:53;;;;;;;0.10;0.10;;;;;;;;;;4986334;28;20248;-71
2022/01/26 01:59:21;;;;;;;0.13;0.13;;;;;;;;;;4985963;28;20241;-70
2022/01/26 02:01:50;;;;;;;0.20;0.20;;;;;;;;;;4985826;28;20257;-70
2022/01/26 02:04:18;;;;;;;0.20;0.20;;;;;;;;;;4985927;28;20516;-71
2022/01/26 02:06:44;;;;;;;0.10;0.10;;;;;;;;;;4985794;28;20233;-69
2022/01/26 02:09:11;;;;;;;0.10;0.10;;;;;;;;;;4985602;28;20513;-70
2022/01/26 02:11:43;;;;;;;0.10;0.10;;;;;;;;;;4985943;28;20276;-70
2022/01/26 02:14:16;;;;;;;0.13;0.13;;;;;;;;;;4985563;28;20579;-70
2022/01/26 02:16:48;;;;;;;0.20;0.20;;;;;;;;;;4985806;28;20256;-70
2022/01/26 02:19:47;;;;;;;0.30;0.30;;;;;;;;;;4985307;28;20264;-70
2022/01/26 02:50:13;;;;;;;0.10;0.10;;;;;;;;;;4984870;28;20209;-70
2022/01/26 02:53:13;;;;;;;0.20;0.20;;;;;;;;;;4984951;28;20485;-71
2022/01/26 02:55:43;;;;;;;0.10;0.10;;;;;;;;;;4985049;28;20206;-71
2022/01/26 03:01:31;;;;;;;0.10;0.10;;;;;;;;;;4906328;29;20194;-71
2022/01/26 03:04:05;;;;;;;0.10;0.10;;;;;;;;;;4979160;28;20240;-70
2022/01/26 03:06:38;;;;;;;0.13;0.13;;;;;;;;;;4984875;28;20353;-70
2022/01/26 03:09:10;;;;;;;0.20;0.20;;;;;;;;;;4984762;28;20203;-71
2022/01/26 03:11:40;;;;;;;0.10;0.10;;;;;;;;;;4984928;28;20523;-70
2022/01/26 03:14:14;;;;;;;0.10;0.10;;;;;;;;;;4967792;28;20491;-71
2022/01/26 03:16:45;;;;;;;0.10;0.10;;;;;;;;;;4984995;28;20259;-70
2022/01/26 03:19:19;;;;;;;0.20;0.20;;;;;;;;;;4984584;28;20197;-70
2022/01/26 03:21:56;;;;;;;0.20;0.20;;;;;;;;;;4984421;28;20240;-69
2022/01/26 03:29:58;;;;;;;0.10;0.10;;;;;;;;;;4984524;28;20212;-70
2022/01/26 03:35:27;;;;;;;0.10;0.10;;;;;;;;;;4984060;28;20266;-70
2022/01/26 03:37:55;;;;;;;0.10;0.10;;;;;;;;;;4984460;28;20197;-71
2022/01/26 03:40:30;;;;;;;0.10;0.10;;;;;;;;;;4983976;28;20201;-71
2022/01/26 03:42:57;;;;;;;0.10;0.10;;;;;;;;;;4984500;28;20221;-71
2022/01/26 03:45:25;;;;;;;0.97;0.97;;;;;;;;;;4984420;28;20279;-71
2022/01/26 03:47:55;;;;;;;0.10;0.10;;;;;;;;;;4984272;28;20208;-71
2022/01/26 03:50:21;;;;;;;0.10;0.10;;;;;;;;;;4984448;28;20285;-71
2022/01/26 03:52:47;;;;;;;0.17;0.17;;;;;;;;;;4983911;28;20572;-70
2022/01/26 03:55:14;;;;;;;0.10;0.10;;;;;;;;;;4983987;28;20236;-70
2022/01/26 03:57:40;;;;;;;0.10;0.10;;;;;;;;;;4984153;28;20509;-70
2022/01/26 04:00:09;;;;;;;0.10;0.10;;;;;;;;;;4984189;28;20398;-70
2022/01/26 04:02:35;;;;;;;0.20;0.20;;;;;;;;;;4983852;28;20256;-70
2022/01/26 04:05:05;;;;;;;0.10;0.10;;;;;;;;;;4983904;28;20282;-70
2022/01/26 04:07:31;;;;;;;0.20;0.20;;;;;;;;;;4984056;28;20236;-69
2022/01/26 04:10:05;;;;;;;0.10;0.10;;;;;;;;;;4984104;28;20268;-70
2022/01/26 04:12:33;;;;;;;0.10;0.10;;;;;;;;;;4983992;28;20204;-70
2022/01/26 04:15:08;;;;;;;0.10;0.10;;;;;;;;;;4983768;28;20237;-70
2022/01/26 04:17:36;;;;;;;0.10;0.10;;;;;;;;;;4983936;28;20359;-70
2022/01/26 04:20:02;;;;;;;0.20;0.20;;;;;;;;;;4983792;28;20282;-70
2022/01/26 04:22:37;;;;;;;0.10;0.10;;;;;;;;;;4983880;28;20209;-70
2022/01/26 04:25:06;;;;;;;0.10;0.10;;;;;;;;;;4983881;28;20204;-70
2022/01/26 04:27:36;;;;;;;0.10;0.10;;;;;;;;;;4983808;28;20264;-70
2022/01/26 04:30:03;;;;;;;0.20;0.20;;;;;;;;;;4983732;28;20209;-70
2022/01/26 04:32:29;;;;;;;0.20;0.20;;;;;;;;;;4983696;28;20434;-70
2022/01/26 04:34:57;;;;;;;0.10;0.10;;;;;;;;;;4983737;28;20455;-70
2022/01/26 04:37:33;;;;;;;0.10;0.10;;;;;;;;;;4983396;28;20209;-71
2022/01/26 04:40:05;;;;;;;0.20;0.20;;;;;;;;;;4983875;28;20250;-70
2022/01/26 04:42:41;;;;;;;0.10;0.10;;;;;;;;;;4983812;28;20256;-70
2022/01/26 04:45:09;;;;;;;0.20;0.20;;;;;;;;;;4983873;28;20209;-70
2022/01/26 04:47:36;;;;;;;0.10;0.10;;;;;;;;;;4985745;28;20210;-70
2022/01/26 04:50:05;;;;;;;0.10;0.10;;;;;;;;;;4987361;28;20208;-70
2022/01/26 04:52:31;;;;;;;0.10;0.10;;;;;;;;;;4987379;28;20248;-70
2022/01/26 04:54:57;;;;;;;0.20;0.20;;;;;;;;;;4987025;28;20429;-69
2022/01/26 04:57:24;;;;;;;0.20;0.20;;;;;;;;;;4987151;28;20452;-69
2022/01/26 04:59:50;;;;;;;0.20;0.20;;;;;;;;;;4987274;28;20390;-70
2022/01/26 05:02:17;;;;;;;0.13;0.13;;;;;;;;;;4986810;28;20241;-71
2022/01/26 05:04:43;;;;;;;0.10;0.10;;;;;;;;;;4987122;28;20212;-70
2022/01/26 05:07:12;;;;;;;0.10;0.10;;;;;;;;;;4987007;28;20529;-70
2022/01/26 05:09:39;;;;;;;0.20;0.20;;;;;;;;;;4987082;28;20209;-70
2022/01/26 05:12:06;;;;;;;0.10;0.10;;;;;;;;;;4986998;28;20496;-70
2022/01/26 05:14:32;;;;;;;0.10;0.10;;;;;;;;;;4986506;28;20229;-69
2022/01/26 05:16:58;;;;;;;0.20;0.20;;;;;;;;;;4986644;28;20253;-72
2022/01/26 05:19:24;;;;;;;0.10;0.10;;;;;;;;;;4986817;28;20404;-70
2022/01/26 05:21:51;;;;;;;0.20;0.20;;;;;;;;;;4986845;28;20512;-70
2022/01/26 05:24:20;;;;;;;0.10;0.10;;;;;;;;;;4986868;28;20233;-70
2022/01/26 05:26:46;;;;;;;0.20;0.20;;;;;;;;;;4986554;28;20216;-70
2022/01/26 05:29:13;;;;;;;0.10;0.10;;;;;;;;;;4986707;28;20230;-70
2022/01/26 05:31:39;;;;;;;0.10;0.10;;;;;;;;;;4986876;28;20250;-70
2022/01/26 05:34:06;;;;;;;0.13;0.13;;;;;;;;;;4986329;28;20240;-71
2022/01/26 05:36:33;;;;;;;0.20;0.20;;;;;;;;;;4986217;28;20281;-72
2022/01/26 05:38:59;;;;;;;0.20;0.20;;;;;;;;;;4986260;28;20208;-71
2022/01/26 05:41:27;;;;;;;0.10;0.10;;;;;;;;;;4986574;28;20216;-71
2022/01/26 05:43:53;;;;;;;0.10;0.10;;;;;;;;;;4986436;28;20252;-69
2022/01/26 05:46:26;;;;;;;0.10;0.10;;;;;;;;;;4986509;28;20445;-70
2022/01/26 05:48:53;;;;;;;0.20;0.20;;;;;;;;;;4986393;28;20255;-70
2022/01/26 05:51:19;;;;;;;0.10;0.10;;;;;;;;;;4986395;28;20210;-70
2022/01/26 05:53:45;;;;;;;0.10;0.10;;;;;;;;;;4986263;28;20213;-69
2022/01/26 05:56:12;;;;;;;0.20;0.20;;;;;;;;;;4986177;28;20312;-70
2022/01/26 05:58:39;;;;;;;0.20;0.20;;;;;;;;;;4985653;28;20209;-69
2022/01/26 06:01:06;;;;;;;2.10;2.00;;;;;;;;;;4986270;28;20434;-69
2022/01/26 06:03:32;;;;;;;0.10;0.10;;;;;;;;;;4985807;28;20254;-71
2022/01/26 06:05:59;;;;;;;0.20;0.20;;;;;;;;;;4986089;28;20236;-70
2022/01/26 06:08:26;;;;;;;0.20;0.20;;;;;;;;;;4986047;28;20214;-69
2022/01/26 06:10:55;;;;;;;0.20;0.20;;;;;;;;;;4985659;28;20208;-70
2022/01/26 06:13:21;;;;;;;0.10;0.10;;;;;;;;;;4985907;28;20255;-70
2022/01/26 06:15:48;;;;;;;0.10;0.10;;;;;;;;;;4985921;28;20540;-70
2022/01/26 06:18:15;;;;;;;0.10;0.10;;;;;;;;;;4985701;28;20213;-70
2022/01/26 06:20:41;;;;;;;0.20;0.20;;;;;;;;;;4985904;28;20217;-70
2022/01/26 06:23:07;;;;;;;0.20;0.20;;;;;;;;;;4985638;28;20213;-69
2022/01/26 06:25:34;;;;;;;0.10;0.10;;;;;;;;;;4985615;28;20508;-70
2022/01/26 06:28:05;;;;;;;0.20;0.20;;;;;;;;;;4985687;28;20272;-70
2022/01/26 06:30:31;;;;;;;0.20;0.20;;;;;;;;;;4985578;28;20209;-70
2022/01/26 06:33:00;;;;;;;0.20;0.20;;;;;;;;;;4985427;28;20210;-70
2022/01/26 06:35:27;;;;;;;0.10;0.10;;;;;;;;;;4985221;28;20237;-70
2022/01/26 06:37:53;;;;;;;0.10;0.10;;;;;;;;;;4985145;28;20209;-70
2022/01/26 06:40:20;;;;;;;0.20;0.20;;;;;;;;;;4985278;28;20238;-70
2022/01/26 06:42:51;;;;;;;0.10;0.10;;;;;;;;;;4985203;28;20380;-70
2022/01/26 06:45:20;;;;;;;0.10;0.10;;;;;;;;;;4985414;28;20206;-70
2022/01/26 06:48:00;;;;;;;0.10;0.10;;;;;;;;;;4985310;28;20249;-70
2022/01/26 06:50:28;;;;;;;0.13;0.13;;;;;;;;;;4985073;28;20232;-70
2022/01/26 06:52:54;;;;;;;0.20;0.20;;;;;;;;;;4985147;28;20264;-70
2022/01/26 06:55:21;;;;;;;0.17;0.17;;;;;;;;;;4985086;28;20466;-70
2022/01/26 06:57:47;;;;;;;0.10;0.10;;;;;;;;;;4985021;28;20218;-70
2022/01/26 07:00:14;;;;;;;0.20;0.20;;;;;;;;;;4984827;28;20213;-70
2022/01/26 07:02:40;;;;;;;0.10;0.10;;;;;;;;;;4984721;28;20279;-70
2022/01/26 07:05:07;;;;;;;0.10;0.10;;;;;;;;;;4984982;28;20256;-70
2022/01/26 07:07:35;;;;;;;0.17;0.17;;;;;;;;;;4984551;28;20229;-70
2022/01/26 07:10:01;;;;;;;0.10;0.10;;;;;;;;;;4984239;28;20232;-70
2022/01/26 07:12:27;;;;;;;0.10;0.10;;;;;;;;;;4984834;28;20243;-70
2022/01/26 07:23:03;;;;;;;0.20;0.20;;;;;;;;;;4942134;28;20530;-69
2022/01/26 07:25:29;;;;;;;0.20;0.20;;;;;;;;;;4984262;28;20212;-69
2022/01/26 07:30:31;;;;;;;0.20;0.20;;;;;;;;;;5312908;23;20306;-72
2022/01/26 07:32:57;;;;;;;0.20;0.20;;;;;;;;;;5042710;28;20214;-72
2022/01/26 07:35:24;;;;;;;0.10;0.10;;;;;;;;;;5043139;28;20228;-71
2022/01/26 07:37:52;;;;;;;0.20;0.20;;;;;;;;;;5043306;28;20248;-72
2022/01/26 07:40:20;;;;;;;0.20;0.20;;;;;;;;;;5042966;28;20206;-73
2022/01/26 07:42:46;;;;;;;0.20;0.20;;;;;;;;;;5043383;28;20230;-71
2022/01/26 07:45:13;;;;;;;0.20;0.20;;;;;;;;;;5043501;28;20206;-74
2022/01/26 07:47:39;;;;;;;0.20;0.20;;;;;;;;;;5042806;28;20262;-73
2022/01/26 07:50:08;;;;;;;0.10;0.10;;;;;;;;;;5037079;28;20245;-72
2022/01/26 07:52:39;;;;;;;0.10;0.10;;;;;;;;;;5038095;28;20242;-73
2022/01/26 07:55:06;;;;;;;0.20;0.20;;;;;;;;;;5016675;28;20275;-72
2022/01/26 07:57:34;;;;;;;0.20;0.20;;;;;;;;;;5013549;28;20421;-72
2022/01/26 08:00:01;;;;;;;0.20;0.20;;;;;;;;;;5001581;28;20247;-73
2022/01/26 08:02:28;;;;;;;0.10;0.10;;;;;;;;;;4992631;28;20256;-73
2022/01/26 08:04:54;;;;;;;0.20;0.20;;;;;;;;;;5003718;28;20280;-73
2022/01/26 08:07:21;;;;;;;0.10;0.10;;;;;;;;;;5009046;28;20592;-67
2022/01/26 08:09:47;;;;;;;0.10;0.10;;;;;;;;;;5003684;28;20506;-67
2022/01/26 08:12:16;;;;;;;0.20;0.20;;;;;;;;;;4994935;28;20246;-74
2022/01/26 08:14:45;;;;;;;0.20;0.20;;;;;;;;;;5002180;28;20428;-74
2022/01/26 08:17:21;;;;;;;0.10;0.10;;;;;;;;;;4994953;28;20290;-74
2022/01/26 08:19:51;;;;;;;0.20;0.20;;;;;;;;;;5002080;28;20276;-73
2022/01/26 08:22:20;;;;;;;0.10;0.10;;;;;;;;;;5014670;28;20243;-72
2022/01/26 08:24:47;;;;;;;0.10;0.10;;;;;;;;;;5025645;28;20230;-73
2022/01/26 08:27:15;;;;;;;0.20;0.20;;;;;;;;;;5032191;28;20310;-73
2022/01/26 08:29:45;;;;;;;0.20;0.20;;;;;;;;;;5027074;28;20331;-74
2022/01/26 08:32:13;;;;;;;0.20;0.20;;;;;;;;;;5027074;28;73952;-73
2022/01/26 08:34:40;;;;;;;0.10;0.10;;;;;;;;;;5025515;28;20432;-74
2022/01/26 08:37:07;;;;;;;0.20;0.20;;;;;;;;;;5018387;28;20245;-73
2022/01/26 08:39:34;;;;;;;0.20;0.20;;;;;;;;;;5025351;28;20209;-74
2022/01/26 08:42:01;;;;;;;0.20;0.20;;;;;;;;;;5018380;28;20238;-72
2022/01/26 08:44:28;;;;;;;0.20;0.20;;;;;;;;;;5026888;28;20207;-74
2022/01/26 08:46:56;;;;;;;0.20;0.20;;;;;;;;;;5030419;28;20566;-73
2022/01/26 08:49:27;;;;;;;0.20;0.20;;;;;;;;;;5024993;28;20262;-72
2022/01/26 08:51:54;;;;;;;0.10;0.10;;;;;;;;;;5018206;28;20458;-71
2022/01/26 08:54:22;;;;;;;0.10;0.10;;;;;;;;;;5027714;28;20500;-76
2022/01/26 08:56:49;;;;;;;0.10;0.10;;;;;;;;;;5018040;28;20243;-73
2022/01/26 08:59:16;;;;;;;0.20;0.20;;;;;;;;;;5024554;28;20505;-73
2022/01/26 09:01:43;;;;;;;0.20;0.20;;;;;;;;;;5028074;28;20588;-75
2022/01/26 09:04:10;;;;;;;0.20;0.20;;;;;;;;;;5029290;28;20424;-74
2022/01/26 09:06:49;;;;;;;0.10;0.10;;;;;;;;;;5017758;28;20258;-75
2022/01/26 09:09:17;;;;;;;0.10;0.10;;;;;;;;;;5028058;28;20219;-72
2022/01/26 09:11:44;;;;;;;0.20;0.20;;;;;;;;;;5017668;28;20506;-72
2022/01/26 09:14:16;;;;;;;0.20;0.20;;;;;;;;;;5028461;28;20298;-72
2022/01/26 09:16:43;;;;;;;0.10;0.10;;;;;;;;;;5017798;28;20586;-72
2022/01/26 09:19:20;;;;;;;0.20;0.20;;;;;;;;;;5024527;28;20210;-72
2022/01/26 09:21:49;;;;;;;0.20;0.20;;;;;;;;;;5028716;28;20241;-72
2022/01/26 09:24:15;;;;;;;0.20;0.20;;;;;;;;;;5024454;28;20215;-72
2022/01/26 09:26:42;;;;;;;0.20;0.20;;;;;;;;;;5028281;28;20276;-73
2022/01/26 09:29:09;;;;;;;0.20;0.20;;;;;;;;;;5028314;28;20299;-72
2022/01/26 09:31:36;;;;;;;0.20;0.20;;;;;;;;;;5017213;28;20292;-73
2022/01/26 09:34:02;;;;;;;0.20;0.20;;;;;;;;;;5028432;28;20421;-73
2022/01/26 09:36:30;;;;;;;0.10;0.10;;;;;;;;;;5017096;28;20238;-73
2022/01/26 09:38:58;;;;;;;0.20;0.20;;;;;;;;;;5023972;28;20524;-74
2022/01/26 09:41:26;;;;;;;0.17;0.17;;;;;;;;;;5025542;28;20569;-72
2022/01/26 09:43:52;;;;;;;0.20;0.20;;;;;;;;;;5030136;28;20207;-72
2022/01/26 09:46:19;;;;;;;0.20;0.20;;;;;;;;;;5025017;28;20552;-72
2022/01/26 09:48:46;;;;;;;0.20;0.20;;;;;;;;;;5030952;28;20204;-73
2022/01/26 09:51:15;;;;;;;0.10;0.10;;;;;;;;;;5017121;28;20273;-73
2022/01/26 09:53:42;;;;;;;0.20;0.20;;;;;;;;;;5031513;28;20400;-72
2022/01/26 09:56:10;;;;;;;0.10;0.10;;;;;;;;;;5023056;28;20259;-73
2022/01/26 09:58:37;;;;;;;0.20;0.20;;;;;;;;;;5023608;28;20206;-72
2022/01/26 10:01:05;;;;;;;0.10;0.10;;;;;;;;;;5022382;28;20569;-72
2022/01/26 10:03:34;;;;;;;0.10;0.10;;;;;;;;;;5023603;28;20517;-72
2022/01/26 10:06:01;;;;;;;0.20;0.20;;;;;;;;;;5016770;28;20565;-72
2022/01/26 10:08:54;;;;;;;0.20;0.20;;;;;;;;;;5023717;28;20215;-73
2022/01/26 10:24:29;;;;;;;0.10;0.10;;;;;;;;;;5025096;28;20203;-73
2022/01/26 10:26:59;;;;;;;0.20;0.20;;;;;;;;;;5015822;28;20244;-73
2022/01/26 10:29:27;;;;;;;0.20;0.20;;;;;;;;;;5023111;28;20232;-73
2022/01/26 10:31:54;;;;;;;0.20;0.20;;;;;;;;;;5016309;28;20242;-72
2022/01/26 10:34:23;;;;;;;0.10;0.10;;;;;;;;;;5023089;28;20216;-73
2022/01/26 10:36:51;;;;;;;0.20;0.20;;;;;;;;;;5015896;28;20250;-73
2022/01/26 10:39:22;;;;;;;0.20;0.20;;;;;;;;;;5026025;28;20207;-74
2022/01/26 10:41:51;;;;;;;0.20;0.20;;;;;;;;;;5027468;28;20292;-74
2022/01/26 10:44:26;;;;;;;0.20;0.20;;;;;;;;;;5022070;28;20208;-72
2022/01/26 10:46:52;;;;;;;0.20;0.20;;;;;;;;;;5027873;28;20245;-74
2022/01/26 10:49:31;;;;;;;0.20;0.20;;;;;;;;;;5025647;28;20275;-73
2022/01/26 10:52:02;;;;;;;0.20;0.20;;;;;;;;;;5028558;28;20243;-74
2022/01/26 10:54:37;;;;;;;0.20;0.20;;;;;;;;;;5022642;28;20233;-75
2022/01/26 10:57:05;;;;;;;0.13;0.13;;;;;;;;;;5015619;28;20289;-76
2022/01/26 10:59:35;;;;;;;0.20;0.20;;;;;;;;;;5022777;28;20216;-77
2022/01/26 11:02:03;;;;;;;0.10;0.10;;;;;;;;;;5028635;28;20249;-75
2022/01/26 11:04:29;;;;;;;0.20;0.20;;;;;;;;;;5024117;28;20255;-74
2022/01/26 11:06:56;;;;;;;0.20;0.20;;;;;;;;;;5015780;28;20244;-76
2022/01/26 11:09:25;;;;;;;0.27;0.27;;;;;;;;;;5024731;28;20245;-74
2022/01/26 11:11:59;;;;;;;0.10;0.10;;;;;;;;;;5015508;28;20254;-75
2022/01/26 11:14:26;;;;;;;0.20;0.20;;;;;;;;;;5022193;28;20202;-74
2022/01/26 11:16:56;;;;;;;0.20;0.20;;;;;;;;;;5027095;28;20235;-73
2022/01/26 11:19:23;;;;;;;0.20;0.20;;;;;;;;;;5024728;28;20220;-73
2022/01/26 11:21:49;;;;;;;0.20;0.20;;;;;;;;;;5015358;28;20271;-73
2022/01/26 11:24:18;;;;;;;0.20;0.20;;;;;;;;;;5022090;28;20265;-70
2022/01/26 11:26:47;;;;;;;0.20;0.20;;;;;;;;;;5015194;28;20310;-70
2022/01/26 11:29:18;;;;;;;0.20;0.20;;;;;;;;;;5022008;28;20529;-70
2022/01/26 11:31:46;;;;;;;0.20;0.20;;;;;;;;;;5026024;28;20242;-71
2022/01/26 11:34:15;;;;;;;0.23;0.23;;;;;;;;;;5021911;28;20502;-71
2022/01/26 11:36:43;;;;;;;0.20;0.20;;;;;;;;;;5014920;28;20277;-69
2022/01/26 11:49:53;;;;;;;0.77;0.77;;;;;;;;;;5022728;28;20226;-71
2022/01/26 11:52:23;;;;;;;0.20;0.20;;;;;;;;;;5012945;28;20385;-72
2022/01/26 11:54:52;;;;;;;0.10;0.10;;;;;;;;;;5021565;28;20245;-71
2022/01/26 11:57:20;;;;;;;0.20;0.20;;;;;;;;;;5012522;28;20234;-70
2022/01/26 11:59:58;;;;;;;0.20;0.20;;;;;;;;;;5021544;28;20272;-72
2022/01/26 12:02:48;;;;;;;0.20;0.20;;;;;;;;;;5012409;28;20589;-72
2022/01/26 12:05:21;;;;;;;0.20;0.20;;;;;;;;;;5012782;28;20210;-70
2022/01/26 12:07:48;;;;;;;0.20;0.20;;;;;;;;;;5021478;28;20211;-71
2022/01/26 12:10:23;;;;;;;0.20;0.20;;;;;;;;;;5012886;28;20256;-70
2022/01/26 12:13:00;;;;;;;0.20;0.20;;;;;;;;;;5035498;28;20228;-72
2022/01/26 12:15:28;;;;;;;0.20;0.20;;;;;;;;;;5014502;28;20248;-71
2022/01/26 12:18:11;;;;;;;0.20;0.20;;;;;;;;;;5021393;28;20242;-71
2022/01/26 12:37:13;;;;;;;0.20;0.20;;;;;;;;;;5027761;28;20260;-71
2022/01/26 12:45:55;;;;;;;0.20;0.20;;;;;;;;;;5015981;28;20241;-73
2022/01/26 12:48:22;;;;;;;15.17;5.03;;;;;;;;;;5030842;28;20216;-72
2022/01/26 12:50:51;;;;;;;0.20;0.20;;;;;;;;;;5014224;28;20321;-73
2022/01/26 12:53:25;;;;;;;0.20;0.20;;;;;;;;;;5020980;28;20203;-73
2022/01/26 12:55:54;;;;;;;0.20;0.20;;;;;;;;;;5014025;28;20242;-72
2022/01/26 12:58:24;;;;;;;0.20;0.20;;;;;;;;;;5020709;28;20431;-72
2022/01/26 13:01:01;;;;;;;0.20;0.20;;;;;;;;;;5013976;28;20321;-72
2022/01/26 13:03:30;;;;;;;0.20;0.20;;;;;;;;;;5020849;28;20221;-72
2022/01/26 13:06:04;;;;;;;0.13;0.13;;;;;;;;;;5017957;28;20245;-72
2022/01/26 13:08:41;;;;;;;0.20;0.20;;;;;;;;;;5022667;28;20206;-73
2022/01/26 13:11:08;;;;;;;0.20;0.20;;;;;;;;;;5017594;28;20474;-71
2022/01/26 13:13:35;;;;;;;0.10;0.10;;;;;;;;;;5033280;28;20241;-72
2022/01/26 13:16:14;;;;;;;0.20;0.20;;;;;;;;;;5021959;28;20258;-71
2022/01/26 13:19:06;;;;;;;0.20;0.20;;;;;;;;;;5032686;28;20194;-72
2022/01/26 13:21:44;;;;;;;0.20;0.20;;;;;;;;;;5017444;28;20367;-72
2022/01/26 13:24:30;;;;;;;0.20;0.20;;;;;;;;;;5028223;28;20229;-71
2022/01/26 13:27:05;;;;;;;0.20;0.20;;;;;;;;;;5029630;28;20249;-69
2022/01/26 13:29:44;;;;;;;0.20;0.20;;;;;;;;;;5024159;28;20229;-70
2022/01/26 13:32:36;;;;;;;0.20;0.20;;;;;;;;;;5016697;28;20555;-71
2022/01/26 13:40:27;;;;;;;0.20;0.20;;;;;;;;;;5016372;28;20195;-71
2022/01/26 13:51:11;;;;;;;0.20;0.20;;;;;;;;;;5022585;28;20261;-72
2022/01/26 13:53:49;;;;;;;0.20;0.20;;;;;;;;;;5031429;28;20296;-71
2022/01/26 13:56:29;;;;;;;0.20;0.20;;;;;;;;;;5016701;28;20255;-71
2022/01/26 13:59:02;;;;;;;0.20;0.20;;;;;;;;;;5029559;28;20217;-73
2022/01/26 14:01:30;;;;;;;0.20;0.20;;;;;;;;;;5016632;28;20237;-72
2022/01/26 14:04:02;;;;;;;0.20;0.20;;;;;;;;;;5023369;28;20276;-72
2022/01/26 14:06:29;;;;;;;0.20;0.20;;;;;;;;;;5016374;28;20268;-71
2022/01/26 14:08:56;;;;;;;0.20;0.20;;;;;;;;;;5028945;28;20220;-72
2022/01/26 14:11:25;;;;;;;0.20;0.20;;;;;;;;;;5024649;28;20272;-71
2022/01/26 14:13:55;;;;;;;0.20;0.20;;;;;;;;;;5023171;28;20232;-71
2022/01/26 14:16:24;;;;;;;0.17;0.17;;;;;;;;;;5016259;28;20536;-70
2022/01/26 14:19:05;;;;;;;0.20;0.20;;;;;;;;;;5023028;28;20210;-72
2022/01/26 14:22:05;;;;;;;0.20;0.20;;;;;;;;;;5025814;28;20312;-72
2022/01/26 14:24:52;;;;;;;0.10;0.10;;;;;;;;;;5024344;28;20213;-71
2022/01/26 14:27:24;;;;;;;0.20;0.20;;;;;;;;;;5014229;28;20238;-70
2022/01/26 14:30:01;;;;;;;0.20;0.20;;;;;;;;;;5024219;28;20249;-71
2022/01/26 14:32:56;;;;;;;0.10;0.10;;;;;;;;;;5029585;28;20243;-70
2022/01/26 14:35:41;;;;;;;0.20;0.20;;;;;;;;;;5015813;28;20207;-70
2022/01/26 14:41:01;;;;;;;0.20;0.20;;;;;;;;;;5019565;28;20240;-70
2022/01/26 14:54:31;;;;;;;0.20;0.20;;;;;;;;;;5026175;28;20193;-72
2022/01/26 15:34:59;;;;;;;0.20;0.20;;;;;;;;;;5023438;28;20207;-73
2022/01/26 15:53:03;;;;;;;0.20;0.20;;;;;;;;;;5036016;28;20186;-71
2022/01/26 18:54:31;;;;;;;0.27;0.27;;;;;;;;;;5043565;28;20204;-71
2022/01/26 18:56:58;;;;;;;0.27;0.27;;;;;;;;;;5026043;28;20202;-70
2022/01/26 18:59:27;;;;;;;0.37;0.37;;;;;;;;;;5026035;28;20253;-72
2022/01/26 19:01:55;;;;;;;0.20;0.20;;;;;;;;;;5043851;28;20209;-71
2022/01/26 19:04:27;;;;;;;0.20;0.20;;;;;;;;;;5043691;28;20210;-71
2022/01/26 19:06:54;;;;;;;0.20;0.20;;;;;;;;;;5024952;28;20507;-70
2022/01/26 19:09:24;;;;;;;0.20;0.20;;;;;;;;;;5025568;28;20206;-71
2022/01/26 19:11:51;;;;;;;0.20;0.20;;;;;;;;;;5043665;28;20272;-71
2022/01/26 19:14:19;;;;;;;0.20;0.20;;;;;;;;;;5025808;28;20267;-72
2022/01/26 19:16:51;;;;;;;0.20;0.20;;;;;;;;;;5043509;28;20292;-72
2022/01/26 19:19:27;;;;;;;0.20;0.20;;;;;;;;;;5043500;28;20281;-71
2022/01/26 19:22:08;;;;;;;0.20;0.20;;;;;;;;;;5025567;28;20209;-71
2022/01/26 19:24:48;;;;;;;0.40;0.40;;;;;;;;;;5025629;28;20547;-71
2022/01/26 19:27:23;;;;;;;0.20;0.20;;;;;;;;;;5043129;28;20220;-71
2022/01/26 19:30:18;;;;;;;0.20;0.20;;;;;;;;;;5025569;28;20421;-70
2022/01/26 19:32:56;;;;;;;0.17;0.17;;;;;;;;;;5043337;28;20210;-72
2022/01/26 19:58:16;;;;;;;0.20;0.20;;;;;;;;;;5042815;28;20288;-72
2022/01/26 20:00:44;;;;;;;0.10;0.10;;;;;;;;;;5042613;28;20218;-73
2022/01/26 20:03:11;;;;;;;0.20;0.20;;;;;;;;;;5025022;28;20209;-72
2022/01/26 20:05:38;;;;;;;1.73;1.73;;;;;;;;;;5025165;28;20256;-73
2022/01/26 20:08:10;;;;;;;0.10;0.10;;;;;;;;;;5025099;28;20247;-76
2022/01/26 20:10:46;;;;;;;0.20;0.20;;;;;;;;;;5025270;28;20234;-72
2022/01/26 20:13:21;;;;;;;0.20;0.20;;;;;;;;;;5025086;28;20209;-71
2022/01/26 20:15:49;;;;;;;0.30;0.30;;;;;;;;;;5025275;28;20261;-72
2022/01/26 20:18:16;;;;;;;0.20;0.20;;;;;;;;;;5028011;28;20274;-72
2022/01/26 20:20:43;;;;;;;0.20;0.20;;;;;;;;;;5047119;28;20491;-72
2022/01/26 20:23:13;;;;;;;0.20;0.20;;;;;;;;;;5046935;28;20210;-72
2022/01/26 20:25:41;;;;;;;0.20;0.20;;;;;;;;;;5047105;28;20358;-71
2022/01/26 20:28:10;;;;;;;0.20;0.20;;;;;;;;;;5046574;28;20236;-72
2022/01/26 20:30:42;;;;;;;0.20;0.20;;;;;;;;;;5028976;28;20232;-70
2022/01/26 20:33:09;;;;;;;0.20;0.20;;;;;;;;;;5046849;28;20199;-71
2022/01/26 20:35:35;;;;;;;0.20;0.20;;;;;;;;;;5047018;28;20209;-72
2022/01/26 20:38:03;;;;;;;0.10;0.10;;;;;;;;;;5046464;28;20279;-71
2022/01/26 20:40:29;;;;;;;0.20;0.20;;;;;;;;;;5046742;28;20210;-70
2022/01/26 20:42:57;;;;;;;0.20;0.20;;;;;;;;;;5029025;28;20209;-71
2022/01/26 20:45:27;;;;;;;0.20;0.20;;;;;;;;;;5046665;28;20213;-70
2022/01/26 20:47:55;;;;;;;4.23;1.70;;;;;;;;;;5046172;28;20512;-71
2022/01/26 20:50:22;;;;;;;0.20;0.20;;;;;;;;;;5046265;28;20216;-68
2022/01/26 20:52:48;;;;;;;0.20;0.20;;;;;;;;;;5045925;28;20233;-72
2022/01/26 20:55:15;;;;;;;0.20;0.20;;;;;;;;;;5045911;28;20217;-72
2022/01/26 20:57:42;;;;;;;0.20;0.20;;;;;;;;;;5028078;28;20562;-71
2022/01/26 21:00:12;;;;;;;0.20;0.20;;;;;;;;;;5028233;28;20383;-70
2022/01/26 21:02:39;;;;;;;0.30;0.30;;;;;;;;;;5028265;28;20211;-70
2022/01/26 21:05:08;;;;;;;0.40;0.40;;;;;;;;;;5028382;28;20280;-71
2022/01/26 21:07:35;;;;;;;0.20;0.20;;;;;;;;;;5045777;28;20216;-75
2022/01/26 21:10:02;;;;;;;0.63;0.63;;;;;;;;;;5045974;28;20205;-70
2022/01/26 21:12:29;;;;;;;0.27;0.27;;;;;;;;;;5027743;28;20298;-70
2022/01/26 21:14:57;;;;;;;0.20;0.20;;;;;;;;;;5028037;28;20367;-72
2022/01/26 21:17:25;;;;;;;0.20;0.20;;;;;;;;;;5027817;28;20213;-72
2022/01/26 21:22:27;;;;;;;0.20;0.20;;;;;;;;;;5618250;23;20554;-70
2022/01/26 21:24:53;;;;;;;0.20;0.20;;;;;;;;;;5025833;28;20214;-71
2022/01/26 21:27:22;;;;;;;0.20;0.20;;;;;;;;;;5014482;28;20247;-72
2022/01/26 21:29:49;;;;;;;0.20;0.20;;;;;;;;;;5007126;28;20217;-69
2022/01/26 21:32:16;;;;;;;0.20;0.20;;;;;;;;;;4997871;28;20360;-70
2022/01/26 21:34:44;;;;;;;0.20;0.20;;;;;;;;;;5025679;28;20210;-71
2022/01/26 21:37:10;;;;;;;1.37;1.37;;;;;;;;;;4984372;28;20252;-70